Time;durP1;ratioP1;P1;durP2;ratioP2;P2;SDS_P1;SDS_P2;PMS_P1;PMS_P2;Temp;Humidity;BMP_temperature;BMP_pressure;BME280_temperature;BME280_humidity;BME280_pressure;Samples;Min_cycle;Max_cycle;Signal;HPM_P1;HPM_P2
2023/04/08 00:01:01;;;;;;;3.58;3.08;;;19.10;52.00;;;;;;5038239;28;20051;-60
2023/04/08 00:03:26;;;;;;;3.72;2.65;;;19.10;52.00;;;;;;5054200;28;20017;-61
2023/04/08 00:05:52;;;;;;;3.67;3.17;;;19.10;52.10;;;;;;5063821;28;20086;-57
2023/04/08 00:08:17;;;;;;;3.65;2.72;;;19.10;52.00;;;;;;5056827;28;20698;-55
2023/04/08 00:10:43;;;;;;;3.10;2.75;;;19.10;52.10;;;;;;5057110;28;20108;-53
2023/04/08 00:13:08;;;;;;;2.92;2.70;;;19.10;52.00;;;;;;5057948;28;20261;-55
2023/04/08 00:15:35;;;;;;;3.15;2.78;;;19.10;52.00;;;;;;5057740;28;20037;-51
2023/04/08 00:18:00;;;;;;;3.72;3.05;;;19.10;52.10;;;;;;5059907;28;20719;-54
2023/04/08 00:20:26;;;;;;;2.58;2.38;;;19.10;52.00;;;;;;5056513;28;20029;-58
2023/04/08 00:22:51;;;;;;;3.20;2.90;;;19.10;52.10;;;;;;5058644;28;20021;-60
2023/04/08 00:25:17;;;;;;;2.90;2.60;;;19.00;52.00;;;;;;5058082;28;20032;-60
2023/04/08 00:27:42;;;;;;;4.28;2.72;;;19.00;52.00;;;;;;5066396;28;20538;-50
2023/04/08 00:30:08;;;;;;;3.42;2.60;;;19.10;52.10;;;;;;5042218;28;20051;-56
2023/04/08 00:32:34;;;;;;;2.70;2.50;;;19.10;52.10;;;;;;5046715;28;20155;-52
2023/04/08 00:34:59;;;;;;;2.70;2.50;;;19.10;52.10;;;;;;5059503;28;20139;-51
2023/04/08 00:37:25;;;;;;;3.30;3.00;;;19.10;52.10;;;;;;5058366;28;20044;-53
2023/04/08 00:39:53;;;;;;;3.15;2.80;;;19.00;52.10;;;;;;5056117;28;20025;-49
2023/04/08 00:42:19;;;;;;;2.60;2.40;;;19.10;52.10;;;;;;5059338;28;20029;-56
2023/04/08 00:44:45;;;;;;;3.00;2.67;;;19.00;52.00;;;;;;5055638;28;20091;-55
2023/04/08 00:47:15;;;;;;;3.40;3.10;;;19.00;52.00;;;;;;5060011;28;20463;-61
2023/04/08 00:49:41;;;;;;;2.80;2.50;;;19.00;52.00;;;;;;5059194;28;20622;-54
2023/04/08 00:52:07;;;;;;;3.25;2.95;;;19.00;52.00;;;;;;5057642;28;20059;-62
2023/04/08 00:54:32;;;;;;;4.10;2.78;;;19.00;52.10;;;;;;5057587;28;20052;-52
2023/04/08 00:57:00;;;;;;;3.55;2.88;;;19.00;52.10;;;;;;5053475;28;20051;-53
2023/04/08 00:59:27;;;;;;;3.15;2.78;;;19.00;52.00;;;;;;5057436;28;20511;-53
2023/04/08 01:02:10;;;;;;;2.67;2.20;;;19.00;52.00;;;;;;5059125;28;20029;-52
2023/04/08 01:04:58;;;;;;;3.03;2.83;;;19.00;52.00;;;;;;5058138;28;20021;-60
2023/04/08 01:07:31;;;;;;;3.05;2.50;;;19.00;52.00;;;;;;5049608;28;20033;-54
2023/04/08 01:10:01;;;;;;;2.60;2.40;;;19.00;52.00;;;;;;5060065;28;20042;-51
2023/04/08 01:12:30;;;;;;;2.88;2.58;;;19.00;52.60;;;;;;5056428;28;20539;-54
2023/04/08 01:15:03;;;;;;;2.92;2.38;;;19.00;52.00;;;;;;5057333;28;20620;-52
2023/04/08 01:17:30;;;;;;;2.63;2.33;;;19.00;52.00;;;;;;5059191;28;20174;-55
2023/04/08 01:20:00;;;;;;;2.85;2.30;;;19.00;52.00;;;;;;5056853;28;20095;-57
2023/04/08 01:22:35;;;;;;;2.50;2.30;;;19.00;52.00;;;;;;5043071;28;20492;-56
2023/04/08 01:25:09;;;;;;;3.05;2.55;;;19.00;52.00;;;;;;5039090;28;20454;-57
2023/04/08 01:27:36;;;;;;;2.60;2.30;;;19.00;52.00;;;;;;5035585;28;20032;-52
2023/04/08 01:30:05;;;;;;;2.15;1.95;;;19.00;52.00;;;;;;5041017;28;20033;-55
2023/04/08 01:32:31;;;;;;;2.42;2.22;;;19.00;52.00;;;;;;5039694;28;20698;-55
2023/04/08 01:34:57;;;;;;;2.30;1.98;;;18.90;52.00;;;;;;5041914;28;20041;-52
2023/04/08 01:37:26;;;;;;;2.72;2.00;;;18.90;52.10;;;;;;5041639;28;20287;-56
2023/04/08 01:39:53;;;;;;;2.30;2.10;;;19.00;52.00;;;;;;5055805;28;20039;-61
2023/04/08 01:42:21;;;;;;;3.67;2.30;;;19.00;52.00;;;;;;5061197;28;20411;-55
2023/04/08 01:44:48;;;;;;;2.28;1.73;;;19.00;52.00;;;;;;5060307;28;20035;-59
2023/04/08 01:47:14;;;;;;;3.20;2.20;;;19.00;52.00;;;;;;5057077;28;20028;-53
2023/04/08 01:49:41;;;;;;;4.35;2.03;;;19.00;52.00;;;;;;5057593;28;20028;-53
2023/04/08 01:52:09;;;;;;;2.22;2.03;;;19.00;52.00;;;;;;5056878;28;20037;-59
2023/04/08 01:54:35;;;;;;;3.55;2.10;;;19.00;52.00;;;;;;5055650;28;20029;-59
2023/04/08 01:57:05;;;;;;;3.15;2.15;;;19.00;52.00;;;;;;5054890;28;20044;-59
2023/04/08 01:59:34;;;;;;;4.45;2.35;;;19.00;52.00;;;;;;5058903;28;20094;-54
2023/04/08 02:02:02;;;;;;;3.13;2.20;;;19.00;52.00;;;;;;5059411;28;20035;-58
2023/04/08 02:04:27;;;;;;;2.35;2.05;;;19.00;52.00;;;;;;5055702;28;20508;-55
2023/04/08 02:06:54;;;;;;;2.30;2.08;;;18.90;52.00;;;;;;5056107;28;20110;-58
2023/04/08 02:09:20;;;;;;;2.28;2.03;;;18.90;52.10;;;;;;5053270;28;20063;-55
2023/04/08 02:11:45;;;;;;;5.32;1.85;;;18.90;52.00;;;;;;5038830;28;20488;-59
2023/04/08 02:14:11;;;;;;;2.50;2.20;;;18.90;51.90;;;;;;5060031;28;20055;-58
2023/04/08 02:16:50;;;;;;;3.15;1.75;;;18.90;51.90;;;;;;5056600;28;20032;-61
2023/04/08 02:19:59;;;;;;;3.90;1.92;;;18.90;52.00;;;;;;5054865;28;20033;-58
2023/04/08 02:22:42;;;;;;;2.03;1.75;;;18.90;52.00;;;;;;5050272;28;20094;-52
2023/04/08 02:25:12;;;;;;;2.97;1.70;;;18.90;52.10;;;;;;5055642;28;20041;-58
2023/04/08 02:27:39;;;;;;;2.22;1.73;;;18.80;52.70;;;;;;5056187;28;20102;-58
2023/04/08 02:30:06;;;;;;;1.73;1.60;;;18.80;52.10;;;;;;5052154;28;20045;-58
2023/04/08 02:32:33;;;;;;;2.00;1.88;;;18.80;52.10;;;;;;5040006;28;20033;-55
2023/04/08 02:35:00;;;;;;;2.88;1.70;;;18.80;52.10;;;;;;5056212;28;20047;-52
2023/04/08 02:37:30;;;;;;;1.95;1.52;;;18.80;52.10;;;;;;5053114;28;20525;-58
2023/04/08 02:39:56;;;;;;;3.33;1.50;;;18.70;52.10;;;;;;5052387;28;20033;-61
2023/04/08 02:42:22;;;;;;;3.17;1.67;;;18.80;52.20;;;;;;5056838;28;20069;-63
2023/04/08 02:44:47;;;;;;;2.75;1.55;;;18.80;52.20;;;;;;5039807;28;20091;-54
2023/04/08 02:47:13;;;;;;;2.28;1.55;;;18.80;52.20;;;;;;5037450;28;20056;-58
2023/04/08 02:49:38;;;;;;;2.65;2.13;;;18.70;52.10;;;;;;5052175;28;20570;-64
2023/04/08 02:52:04;;;;;;;2.40;1.75;;;18.80;52.20;;;;;;5056872;28;20082;-61
2023/04/08 02:54:29;;;;;;;1.85;1.40;;;18.70;52.20;;;;;;5052326;28;20503;-62
2023/04/08 02:56:55;;;;;;;2.08;1.60;;;18.80;52.20;;;;;;5058238;28;20086;-64
2023/04/08 02:59:20;;;;;;;2.13;1.52;;;18.80;52.20;;;;;;5062597;28;20020;-63
2023/04/08 03:01:46;;;;;;;1.75;1.60;;;18.80;52.20;;;;;;5060437;28;20120;-63
2023/04/08 03:04:11;;;;;;;2.47;1.73;;;18.80;52.20;;;;;;5056933;28;20056;-63
2023/04/08 03:06:37;;;;;;;2.95;1.65;;;18.80;52.20;;;;;;5056433;28;20033;-61
2023/04/08 03:09:04;;;;;;;1.55;1.45;;;18.80;52.20;;;;;;5053054;28;20033;-60
2023/04/08 03:11:30;;;;;;;1.80;1.52;;;18.80;52.20;;;;;;5050229;28;20143;-59
2023/04/08 03:13:55;;;;;;;1.75;1.35;;;18.80;52.20;;;;;;5059042;28;20583;-57
2023/04/08 03:16:21;;;;;;;1.90;1.58;;;18.80;52.20;;;;;;5055393;28;20037;-59
2023/04/08 03:18:48;;;;;;;2.55;1.85;;;18.70;52.20;;;;;;5054810;28;20119;-61
2023/04/08 03:21:13;;;;;;;1.80;1.30;;;18.80;52.20;;;;;;5055767;28;20120;-58
2023/04/08 03:23:39;;;;;;;3.35;1.50;;;18.80;52.20;;;;;;5051342;28;20530;-62
2023/04/08 03:26:04;;;;;;;2.17;1.50;;;18.80;52.20;;;;;;5056371;28;20647;-54
2023/04/08 03:28:30;;;;;;;1.70;1.60;;;18.70;52.20;;;;;;5059330;28;20036;-59
2023/04/08 03:30:55;;;;;;;1.92;1.50;;;18.70;52.20;;;;;;5053673;28;20514;-60
2023/04/08 03:33:21;;;;;;;1.90;1.20;;;18.70;52.20;;;;;;5053461;28;20033;-56
2023/04/08 03:35:46;;;;;;;1.85;1.02;;;18.70;52.20;;;;;;5053766;28;20045;-61
2023/04/08 03:38:12;;;;;;;2.03;1.75;;;18.70;52.20;;;;;;5049995;28;20033;-58
2023/04/08 03:40:37;;;;;;;1.10;1.00;;;18.80;52.20;;;;;;5054503;28;20063;-62
2023/04/08 03:43:04;;;;;;;1.83;1.38;;;18.80;52.20;;;;;;5055907;28;20060;-57
2023/04/08 03:45:30;;;;;;;1.67;1.33;;;18.80;52.20;;;;;;5055595;28;20029;-60
2023/04/08 03:47:55;;;;;;;1.63;1.33;;;18.80;52.20;;;;;;5058640;28;20033;-59
2023/04/08 03:50:21;;;;;;;1.70;1.27;;;18.80;52.20;;;;;;5059619;28;20053;-58
2023/04/08 03:52:46;;;;;;;2.35;1.27;;;18.80;52.20;;;;;;5054796;28;20581;-58
2023/04/08 03:55:12;;;;;;;1.15;1.05;;;18.80;52.10;;;;;;5055081;28;20025;-61
2023/04/08 03:57:37;;;;;;;1.17;1.08;;;18.80;52.10;;;;;;5059499;28;20185;-56
2023/04/08 04:00:03;;;;;;;1.65;1.27;;;18.80;52.00;;;;;;5062535;28;20281;-52
2023/04/08 04:02:28;;;;;;;0.93;0.90;;;18.90;52.10;;;;;;5059151;28;20028;-59
2023/04/08 04:04:54;;;;;;;1.48;1.05;;;18.90;52.10;;;;;;5058750;28;20110;-57
2023/04/08 04:07:19;;;;;;;1.10;1.00;;;18.90;52.10;;;;;;5052290;28;20021;-55
2023/04/08 04:09:45;;;;;;;1.70;1.20;;;18.90;52.00;;;;;;5061429;28;20027;-56
2023/04/08 04:12:10;;;;;;;1.23;1.10;;;18.90;52.00;;;;;;5061127;28;20086;-59
2023/04/08 04:14:36;;;;;;;1.88;1.23;;;18.90;52.00;;;;;;5058136;28;20028;-59
2023/04/08 04:17:01;;;;;;;1.00;1.00;;;18.90;51.90;;;;;;5058253;28;20067;-56
2023/04/08 04:19:30;;;;;;;1.02;0.93;;;19.00;52.00;;;;;;5058072;28;20116;-62
2023/04/08 04:21:56;;;;;;;1.10;1.00;;;19.00;51.90;;;;;;5055934;28;20112;-59
2023/04/08 04:24:21;;;;;;;1.20;1.10;;;19.00;51.80;;;;;;5060391;28;20120;-56
2023/04/08 04:26:47;;;;;;;2.97;1.13;;;19.00;51.80;;;;;;5060451;28;20024;-61
2023/04/08 04:29:12;;;;;;;1.05;0.93;;;19.00;51.80;;;;;;5059668;28;20043;-59
2023/04/08 04:31:38;;;;;;;1.10;1.00;;;19.00;51.80;;;;;;5049704;28;20079;-64
2023/04/08 04:34:03;;;;;;;0.73;0.73;;;19.00;51.80;;;;;;5043698;28;20071;-57
2023/04/08 04:36:30;;;;;;;1.77;1.00;;;19.00;51.80;;;;;;5039123;28;20029;-59
2023/04/08 04:38:55;;;;;;;1.27;1.17;;;19.10;51.80;;;;;;5040974;28;20040;-59
2023/04/08 04:41:21;;;;;;;2.17;0.90;;;19.00;51.80;;;;;;5054112;28;20021;-60
2023/04/08 04:43:46;;;;;;;1.15;1.05;;;19.00;51.80;;;;;;5060072;28;20170;-61
2023/04/08 04:46:12;;;;;;;1.35;1.02;;;19.10;51.90;;;;;;5048205;28;20080;-59
2023/04/08 04:48:37;;;;;;;1.42;1.00;;;19.10;51.90;;;;;;5041203;28;20179;-57
2023/04/08 04:51:03;;;;;;;1.10;1.00;;;19.10;51.80;;;;;;5035674;28;20044;-57
2023/04/08 04:53:30;;;;;;;1.25;0.90;;;19.00;51.80;;;;;;5037691;28;20147;-59
2023/04/08 04:55:55;;;;;;;0.82;0.70;;;19.10;51.80;;;;;;5043226;28;20065;-57
2023/04/08 04:58:21;;;;;;;0.80;0.70;;;19.00;51.80;;;;;;5046440;28;20059;-58
2023/04/08 05:00:46;;;;;;;2.55;0.95;;;19.10;51.80;;;;;;5060770;28;20376;-57
2023/04/08 05:03:12;;;;;;;3.20;0.80;;;19.10;51.70;;;;;;5057743;28;20021;-58
2023/04/08 05:05:38;;;;;;;1.25;0.80;;;19.10;51.70;;;;;;5057261;28;20430;-59
2023/04/08 05:08:04;;;;;;;0.93;0.82;;;19.00;51.80;;;;;;5053933;28;20039;-55
2023/04/08 05:10:29;;;;;;;2.17;0.80;;;19.10;51.80;;;;;;5059344;28;20094;-55
2023/04/08 05:12:55;;;;;;;0.70;0.70;;;19.10;51.70;;;;;;5051228;28;20053;-58
2023/04/08 05:15:21;;;;;;;1.27;0.80;;;19.10;51.70;;;;;;5057037;28;20029;-61
2023/04/08 05:17:46;;;;;;;1.42;0.88;;;19.10;51.70;;;;;;5049294;28;20024;-56
2023/04/08 05:20:12;;;;;;;0.82;0.80;;;19.10;51.80;;;;;;5035817;28;20079;-58
2023/04/08 05:22:37;;;;;;;0.93;0.75;;;19.10;51.70;;;;;;5036038;28;20025;-61
2023/04/08 05:25:04;;;;;;;0.60;0.60;;;19.10;51.70;;;;;;5041024;28;20068;-59
2023/04/08 05:27:30;;;;;;;0.70;0.60;;;19.10;51.60;;;;;;5051634;28;20490;-61
2023/04/08 05:29:55;;;;;;;0.90;0.70;;;19.10;51.70;;;;;;5062109;28;20094;-59
2023/04/08 05:32:21;;;;;;;0.85;0.77;;;19.10;51.60;;;;;;5052118;28;20730;-61
2023/04/08 05:34:46;;;;;;;0.90;0.80;;;19.10;51.70;;;;;;5058106;28;20029;-59
2023/04/08 05:37:12;;;;;;;0.70;0.68;;;19.10;51.60;;;;;;5056883;28;20037;-59
2023/04/08 05:39:37;;;;;;;0.82;0.80;;;19.10;51.60;;;;;;5055079;28;20052;-60
2023/04/08 05:42:03;;;;;;;0.70;0.60;;;19.10;51.60;;;;;;5054892;28;20029;-58
2023/04/08 05:44:28;;;;;;;1.85;0.60;;;19.20;51.60;;;;;;5036688;28;20033;-60
2023/04/08 05:46:56;;;;;;;0.88;0.65;;;19.10;51.50;;;;;;5037446;28;20450;-64
2023/04/08 05:49:22;;;;;;;1.20;0.70;;;19.10;51.60;;;;;;5051802;28;20510;-60
2023/04/08 05:51:47;;;;;;;1.02;0.60;;;19.20;51.50;;;;;;5056553;28;20036;-62
2023/04/08 05:54:12;;;;;;;1.00;0.70;;;19.10;51.50;;;;;;5061623;28;20082;-56
2023/04/08 05:56:38;;;;;;;0.55;0.55;;;19.20;51.50;;;;;;5060696;28;20106;-56
2023/04/08 05:59:04;;;;;;;0.47;0.47;;;19.20;51.60;;;;;;5061332;28;20453;-56
2023/04/08 06:01:29;;;;;;;1.23;0.90;;;19.10;51.50;;;;;;5058788;28;20025;-59
2023/04/08 06:03:55;;;;;;;0.70;0.60;;;19.20;51.50;;;;;;5054423;28;20416;-61
2023/04/08 06:06:21;;;;;;;1.20;0.55;;;19.20;51.50;;;;;;5057463;28;20025;-58
2023/04/08 06:08:47;;;;;;;1.13;1.02;;;19.10;51.50;;;;;;5057912;28;20059;-62
2023/04/08 06:11:13;;;;;;;0.90;0.70;;;19.10;51.50;;;;;;5055887;28;20060;-60
2023/04/08 06:13:38;;;;;;;0.65;0.60;;;19.20;51.50;;;;;;5055372;28;20029;-57
2023/04/08 06:16:15;;;;;;;0.50;0.50;;;19.20;51.50;;;;;;5056384;28;20192;-63
2023/04/08 06:18:41;;;;;;;0.70;0.68;;;19.20;51.50;;;;;;5044727;28;20029;-63
2023/04/08 06:21:07;;;;;;;0.68;0.57;;;19.20;51.50;;;;;;5038336;28;20047;-63
2023/04/08 06:23:32;;;;;;;2.28;0.85;;;19.20;51.50;;;;;;5041745;28;20055;-64
2023/04/08 06:25:58;;;;;;;0.73;0.60;;;19.20;51.50;;;;;;5039399;28;20253;-57
2023/04/08 06:28:23;;;;;;;0.80;0.80;;;19.20;51.60;;;;;;5052701;28;20126;-61
2023/04/08 06:30:49;;;;;;;5.07;0.82;;;19.20;51.70;;;;;;5054342;28;20342;-63
2023/04/08 06:33:14;;;;;;;3.40;0.70;;;19.20;51.70;;;;;;5054332;28;20041;-62
2023/04/08 06:35:40;;;;;;;2.97;1.00;;;19.20;51.90;;;;;;5047885;28;20037;-62
2023/04/08 06:38:06;;;;;;;3.80;0.90;;;19.20;51.90;;;;;;5052988;28;20020;-63
2023/04/08 06:40:31;;;;;;;4.68;0.90;;;19.30;52.00;;;;;;5055507;28;20529;-63
2023/04/08 06:42:57;;;;;;;1.95;0.80;;;19.30;52.00;;;;;;5053375;28;20059;-63
2023/04/08 06:45:22;;;;;;;3.45;0.95;;;19.30;52.00;;;;;;5056423;28;20479;-63
2023/04/08 06:47:48;;;;;;;3.55;1.00;;;19.30;52.10;;;;;;5054546;28;20108;-63
2023/04/08 06:50:13;;;;;;;4.60;1.23;;;19.30;52.00;;;;;;5039049;28;20021;-62
2023/04/08 06:52:39;;;;;;;11.60;4.57;;;19.30;52.00;;;;;;5042018;28;20041;-52
2023/04/08 06:55:05;;;;;;;17.98;7.43;;;19.30;52.00;;;;;;5041475;28;20566;-63
2023/04/08 06:57:30;;;;;;;23.23;11.15;;;19.30;52.10;;;;;;5053052;28;20044;-60
2023/04/08 06:59:56;;;;;;;21.80;12.10;;;19.30;52.10;;;;;;5050239;28;20455;-62
2023/04/08 07:02:21;;;;;;;21.80;12.52;;;19.30;52.20;;;;;;5050119;28;20028;-61
2023/04/08 07:04:47;;;;;;;28.55;12.65;;;19.30;52.30;;;;;;5055521;28;20556;-63
2023/04/08 07:07:13;;;;;;;23.60;12.77;;;19.20;52.20;;;;;;5056865;28;20033;-64
2023/04/08 07:09:40;;;;;;;22.90;11.27;;;19.20;52.20;;;;;;5055132;28;20025;-60
2023/04/08 07:12:05;;;;;;;24.00;10.93;;;19.30;52.30;;;;;;5045141;28;20422;-62
2023/04/08 07:14:31;;;;;;;24.15;11.20;;;19.30;52.30;;;;;;5035331;28;20053;-63
2023/04/08 07:16:56;;;;;;;23.55;11.75;;;19.30;52.30;;;;;;5033346;28;20242;-62
2023/04/08 07:19:23;;;;;;;19.70;10.43;;;19.20;52.20;;;;;;5043952;28;20093;-63
2023/04/08 07:21:49;;;;;;;18.08;9.95;;;19.20;52.20;;;;;;5054650;28;20109;-62
2023/04/08 07:24:14;;;;;;;20.17;9.43;;;19.20;52.20;;;;;;5047443;28;20082;-63
2023/04/08 07:26:40;;;;;;;17.75;9.07;;;19.30;52.30;;;;;;5050664;28;20535;-58
2023/04/08 07:29:06;;;;;;;17.38;8.18;;;19.30;52.30;;;;;;5039495;28;20094;-61
2023/04/08 07:31:32;;;;;;;15.77;8.38;;;19.30;52.20;;;;;;5058274;28;20044;-61
2023/04/08 07:33:57;;;;;;;14.85;8.70;;;19.20;52.10;;;;;;5055333;28;20524;-62
2023/04/08 07:36:23;;;;;;;16.00;8.52;;;19.20;52.20;;;;;;5055282;28;20037;-64
2023/04/08 07:38:48;;;;;;;16.40;8.20;;;19.20;52.10;;;;;;5056189;28;20488;-62
2023/04/08 07:41:14;;;;;;;19.52;8.50;;;19.20;52.20;;;;;;5056154;28;20445;-64
2023/04/08 07:43:40;;;;;;;16.58;6.78;;;19.20;52.20;;;;;;5053722;28;20128;-64
2023/04/08 07:46:06;;;;;;;20.15;10.20;;;19.20;52.10;;;;;;5052473;28;20029;-58
2023/04/08 07:48:32;;;;;;;32.00;13.63;;;19.30;52.30;;;;;;5049989;28;20060;-61
2023/04/08 07:51:01;;;;;;;37.78;17.52;;;19.30;52.50;;;;;;5046261;28;20420;-63
2023/04/08 07:53:27;;;;;;;39.78;17.73;;;19.20;52.70;;;;;;5056736;28;20090;-61
2023/04/08 07:55:52;;;;;;;34.55;17.67;;;19.30;52.90;;;;;;5043016;28;20033;-64
2023/04/08 07:58:18;;;;;;;44.47;16.58;;;19.30;53.10;;;;;;5050762;28;20033;-63
2023/04/08 08:00:43;;;;;;;33.97;16.20;;;19.30;53.10;;;;;;5055290;28;20555;-64
2023/04/08 08:03:09;;;;;;;27.88;14.40;;;19.30;53.20;;;;;;5053761;28;20020;-63
2023/04/08 08:05:37;;;;;;;32.13;15.88;;;19.30;53.20;;;;;;5052517;28;20032;-63
2023/04/08 08:08:03;;;;;;;30.70;14.55;;;19.30;53.30;;;;;;5053688;28;20047;-63
2023/04/08 08:10:29;;;;;;;26.38;12.88;;;19.30;53.30;;;;;;5052105;28;20490;-62
2023/04/08 08:12:54;;;;;;;27.83;13.00;;;19.30;53.40;;;;;;5052567;28;20436;-61
2023/04/08 08:15:20;;;;;;;22.10;11.25;;;19.20;53.40;;;;;;5054236;28;20425;-62
2023/04/08 08:17:45;;;;;;;24.38;11.70;;;19.20;53.50;;;;;;5031250;28;20084;-62
2023/04/08 08:20:11;;;;;;;25.45;12.00;;;19.20;53.60;;;;;;5041679;28;20404;-61
2023/04/08 08:22:38;;;;;;;19.55;10.73;;;19.20;53.70;;;;;;5056267;28;20491;-60
2023/04/08 08:25:04;;;;;;;21.25;10.52;;;19.10;54.40;;;;;;5057057;28;20036;-63
2023/04/08 08:27:30;;;;;;;19.95;9.93;;;19.10;54.50;;;;;;5053116;28;20028;-64
2023/04/08 08:29:55;;;;;;;24.35;9.85;;;19.10;54.00;;;;;;5052157;28;20086;-62
2023/04/08 08:32:21;;;;;;;18.17;8.85;;;19.10;54.10;;;;;;5053578;28;20121;-57
2023/04/08 08:34:46;;;;;;;17.30;7.70;;;19.10;54.10;;;;;;5056956;28;20539;-63
2023/04/08 08:37:12;;;;;;;18.80;8.73;;;19.00;54.20;;;;;;5048656;28;20037;-62
2023/04/08 08:39:37;;;;;;;18.13;8.55;;;19.00;54.30;;;;;;5056617;28;20045;-54
2023/04/08 08:42:03;;;;;;;17.83;6.93;;;19.00;54.40;;;;;;5058528;28;20380;-57
2023/04/08 08:44:29;;;;;;;17.90;6.72;;;19.00;54.40;;;;;;5055829;28;20135;-62
2023/04/08 08:46:55;;;;;;;15.43;6.90;;;19.00;54.40;;;;;;5041469;28;20433;-62
2023/04/08 08:49:20;;;;;;;13.23;6.40;;;19.00;54.30;;;;;;5055400;28;20109;-63
2023/04/08 08:51:47;;;;;;;12.98;6.00;;;19.00;54.30;;;;;;5051091;28;20060;-56
2023/04/08 08:54:14;;;;;;;14.40;5.80;;;19.00;54.30;;;;;;5051814;28;20035;-62
2023/04/08 08:56:41;;;;;;;10.35;5.57;;;19.00;54.30;;;;;;5052533;28;20064;-56
2023/04/08 08:59:07;;;;;;;13.05;6.13;;;19.00;54.20;;;;;;5052915;28;20111;-62
2023/04/08 09:01:38;;;;;;;13.57;6.28;;;19.00;54.10;;;;;;5058935;28;20476;-61
2023/04/08 09:04:10;;;;;;;11.80;5.90;;;19.00;54.00;;;;;;5052771;28;20028;-54
2023/04/08 09:06:36;;;;;;;12.68;6.53;;;19.00;53.90;;;;;;5050155;28;20053;-61
2023/04/08 09:09:04;;;;;;;14.00;5.65;;;19.00;53.80;;;;;;5036660;28;20611;-53
2023/04/08 09:11:30;;;;;;;13.65;5.63;;;19.00;53.70;;;;;;5037239;28;20036;-62
2023/04/08 09:13:56;;;;;;;16.83;5.88;;;19.00;53.60;;;;;;5054436;28;20032;-59
2023/04/08 09:16:22;;;;;;;11.02;6.13;;;19.10;53.50;;;;;;5052579;28;20218;-54
2023/04/08 09:18:48;;;;;;;10.98;5.32;;;19.10;53.40;;;;;;5059789;28;20170;-62
2023/04/08 09:21:18;;;;;;;11.57;5.47;;;19.00;53.30;;;;;;5055956;28;20036;-61
2023/04/08 09:23:46;;;;;;;11.25;5.43;;;19.10;53.30;;;;;;5058266;28;20405;-61
2023/04/08 09:26:14;;;;;;;14.38;6.03;;;19.10;53.20;;;;;;5056218;28;20028;-60
2023/04/08 09:28:41;;;;;;;9.65;5.60;;;19.10;53.20;;;;;;5046065;28;20040;-62
2023/04/08 09:31:20;;;;;;;12.55;5.68;;;19.10;53.10;;;;;;5058109;28;20403;-61
2023/04/08 09:33:47;;;;;;;10.48;5.00;;;19.10;53.00;;;;;;5051924;28;20049;-62
2023/04/08 09:36:14;;;;;;;8.90;5.40;;;19.10;53.00;;;;;;5055899;28;20048;-61
2023/04/08 09:38:40;;;;;;;10.82;5.72;;;19.10;53.00;;;;;;5058159;28;20037;-61
2023/04/08 09:41:07;;;;;;;11.20;6.22;;;19.10;53.10;;;;;;5054261;28;20036;-57
2023/04/08 09:43:39;;;;;;;10.48;5.63;;;19.10;53.00;;;;;;5054170;28;20719;-62
2023/04/08 09:46:07;;;;;;;12.57;6.78;;;19.10;53.00;;;;;;5050084;28;20047;-51
2023/04/08 09:48:41;;;;;;;10.68;6.13;;;19.10;53.00;;;;;;5046083;28;20025;-61
2023/04/08 09:51:11;;;;;;;11.43;5.93;;;19.10;53.00;;;;;;5057294;28;20037;-61
2023/04/08 09:53:40;;;;;;;10.55;6.22;;;19.10;53.10;;;;;;5056471;28;20055;-60
2023/04/08 09:56:11;;;;;;;9.52;5.90;;;19.20;53.10;;;;;;5050597;28;20032;-63
2023/04/08 09:58:53;;;;;;;10.55;6.57;;;19.20;53.10;;;;;;5044790;28;20037;-62
2023/04/08 10:01:35;;;;;;;8.55;6.20;;;19.20;53.10;;;;;;5050243;28;20470;-60
2023/04/08 10:04:06;;;;;;;9.27;5.90;;;19.30;53.20;;;;;;5054984;28;20372;-63
2023/04/08 10:06:33;;;;;;;10.43;6.70;;;19.20;53.20;;;;;;5054756;28;20037;-62
2023/04/08 10:09:00;;;;;;;13.07;6.95;;;19.20;53.30;;;;;;5047919;28;20032;-61
2023/04/08 10:11:26;;;;;;;13.90;7.50;;;19.20;53.30;;;;;;5047771;28;20029;-62
2023/04/08 10:13:52;;;;;;;10.55;6.47;;;19.30;53.40;;;;;;5042079;28;20450;-62
2023/04/08 10:16:26;;;;;;;9.30;6.60;;;19.30;53.30;;;;;;5056747;28;20032;-64
2023/04/08 10:18:54;;;;;;;10.40;6.95;;;19.20;53.30;;;;;;5060930;28;20047;-63
2023/04/08 10:21:47;;;;;;;12.25;6.00;;;19.30;53.40;;;;;;5004669;28;20411;-63
2023/04/08 10:24:13;;;;;;;17.25;6.88;;;19.30;53.40;;;;;;5062871;28;20033;-63
2023/04/08 10:26:42;;;;;;;15.80;6.45;;;19.30;53.40;;;;;;5052389;28;20048;-63
2023/04/08 10:29:17;;;;;;;14.73;6.32;;;19.40;53.50;;;;;;5053019;28;20540;-63
2023/04/08 10:31:43;;;;;;;16.70;6.83;;;19.40;53.40;;;;;;5055595;28;20032;-63
2023/04/08 10:34:14;;;;;;;12.40;6.85;;;19.40;53.30;;;;;;5056339;28;20044;-62
2023/04/08 10:36:40;;;;;;;13.88;6.65;;;19.40;53.30;;;;;;5052988;28;20037;-63
2023/04/08 10:39:06;;;;;;;11.18;6.35;;;19.40;53.30;;;;;;5052107;28;20029;-64
2023/04/08 10:41:31;;;;;;;16.52;5.90;;;19.50;53.70;;;;;;5050937;28;20044;-63
2023/04/08 10:43:56;;;;;;;18.27;6.45;;;19.50;53.70;;;;;;5054015;28;20040;-63
2023/04/08 10:46:22;;;;;;;12.38;6.25;;;19.60;54.30;;;;;;5056265;28;20048;-63
2023/04/08 10:49:00;;;;;;;18.17;6.38;;;19.60;54.10;;;;;;5046755;28;20118;-63
2023/04/08 10:51:30;;;;;;;17.73;6.80;;;19.60;54.30;;;;;;5043484;28;20032;-63
2023/04/08 10:54:05;;;;;;;13.95;8.15;;;19.70;54.50;;;;;;5050012;28;20571;-61
2023/04/08 10:56:30;;;;;;;18.23;6.45;;;19.70;54.40;;;;;;5051397;28;20036;-63
2023/04/08 10:58:56;;;;;;;19.80;7.63;;;19.70;54.30;;;;;;5055262;28;20319;-62
2023/04/08 11:01:21;;;;;;;21.52;7.25;;;19.70;54.30;;;;;;5053443;28;20377;-59
2023/04/08 11:03:48;;;;;;;18.90;6.75;;;19.70;54.30;;;;;;5049320;28;20033;-64
2023/04/08 11:06:13;;;;;;;15.32;7.65;;;19.70;54.30;;;;;;5050422;28;20389;-63
2023/04/08 11:08:39;;;;;;;26.67;7.53;;;19.60;54.20;;;;;;5046699;28;20048;-64
2023/04/08 11:11:09;;;;;;;16.05;6.45;;;19.60;54.20;;;;;;5036781;28;20324;-63
2023/04/08 11:13:43;;;;;;;19.65;7.45;;;19.60;54.30;;;;;;5050050;28;20036;-64
2023/04/08 11:16:09;;;;;;;20.23;6.75;;;19.60;54.30;;;;;;5058322;28;20151;-64
2023/04/08 11:18:38;;;;;;;21.33;8.00;;;19.50;54.20;;;;;;5052186;28;20111;-64
2023/04/08 11:21:07;;;;;;;21.95;7.57;;;19.50;54.30;;;;;;5055011;28;20028;-65
2023/04/08 11:23:32;;;;;;;23.20;6.70;;;19.50;54.40;;;;;;5042307;28;20058;-64
2023/04/08 11:25:58;;;;;;;15.30;6.10;;;19.50;54.50;;;;;;5044541;28;20329;-63
2023/04/08 11:28:24;;;;;;;23.92;7.38;;;19.40;54.40;;;;;;5051022;28;20036;-65
2023/04/08 11:30:52;;;;;;;16.95;6.57;;;19.40;54.40;;;;;;5050235;28;20041;-63
2023/04/08 11:33:17;;;;;;;17.48;6.13;;;19.40;54.50;;;;;;5038663;28;20037;-65
2023/04/08 11:35:43;;;;;;;13.25;6.20;;;19.40;54.60;;;;;;5051515;28;20064;-64
2023/04/08 11:38:10;;;;;;;16.73;5.50;;;19.40;54.60;;;;;;5038508;28;20036;-66
2023/04/08 11:40:35;;;;;;;11.52;5.22;;;19.40;54.80;;;;;;5038935;28;20442;-65
2023/04/08 11:43:11;;;;;;;8.60;5.35;;;19.40;54.70;;;;;;5050359;28;20028;-66
2023/04/08 11:45:39;;;;;;;28.55;12.02;;;19.40;54.80;;;;;;5040182;28;20104;-65
2023/04/08 11:48:12;;;;;;;41.45;19.33;;;19.40;54.80;;;;;;5054502;28;20044;-62
2023/04/08 11:50:38;;;;;;;47.88;20.83;;;19.30;54.90;;;;;;5038235;28;20037;-64
2023/04/08 11:53:14;;;;;;;43.10;20.58;;;19.40;54.80;;;;;;5037484;28;20043;-64
2023/04/08 11:55:40;;;;;;;41.38;20.48;;;19.30;54.80;;;;;;5041992;28;20032;-63
2023/04/08 11:58:06;;;;;;;57.97;23.63;;;19.30;54.90;;;;;;5047355;28;20022;-65
2023/04/08 12:00:31;;;;;;;54.05;24.52;;;19.30;54.90;;;;;;5052532;28;20032;-65
2023/04/08 12:02:57;;;;;;;52.50;22.70;;;19.30;55.00;;;;;;5051279;28;20074;-67
2023/04/08 12:05:23;;;;;;;45.75;23.40;;;19.30;55.00;;;;;;5061327;22;20060;-70
2023/04/08 12:07:48;;;;;;;48.92;25.00;;;19.30;55.00;;;;;;5029665;28;20427;-73
2023/04/08 12:10:14;;;;;;;46.97;24.33;;;19.20;54.90;;;;;;5044375;28;20486;-69
2023/04/08 12:12:40;;;;;;;50.65;27.02;;;19.30;54.80;;;;;;5037736;28;20041;-70
2023/04/08 12:15:07;;;;;;;59.65;30.77;;;19.30;54.80;;;;;;5062075;28;20033;-71
2023/04/08 12:17:33;;;;;;;55.75;35.15;;;19.30;54.80;;;;;;5057281;28;20478;-69
2023/04/08 12:19:58;;;;;;;62.90;35.60;;;19.20;54.80;;;;;;5063001;28;20108;-71
2023/04/08 12:22:24;;;;;;;58.13;34.75;;;19.20;54.80;;;;;;5061467;28;20024;-71
2023/04/08 12:24:50;;;;;;;54.30;33.72;;;19.30;54.80;;;;;;5061825;28;20029;-71
2023/04/08 12:27:15;;;;;;;54.75;35.30;;;19.30;54.80;;;;;;5061728;28;20071;-70
2023/04/08 12:29:42;;;;;;;52.78;33.90;;;19.20;54.60;;;;;;5057679;28;20082;-69
2023/04/08 12:32:07;;;;;;;56.65;33.90;;;19.20;54.60;;;;;;5057712;28;20025;-70
2023/04/08 12:34:33;;;;;;;52.35;31.75;;;19.20;54.90;;;;;;5052114;28;20029;-70
2023/04/08 12:36:59;;;;;;;57.10;31.25;;;19.30;54.60;;;;;;5046136;28;20486;-71
2023/04/08 12:39:24;;;;;;;50.63;31.80;;;19.20;54.50;;;;;;5060339;28;20029;-70